Advance, Indiana
Current Conditions -  °F | °C
As of 3:15 AM on Saturday 25 Oct 2014 (Local Time) from KTYQ Reporting Station
Broken Clouds Broken Clouds  
Wind Chill: 52°   Ceiling: 8500
Heat Index: 52°   Visibility: 7mi
Dew Point: 48°   Wind: 3mph
Humidity: 86%   Direction: 200°SSW
Pressure: 29.99"   Gusts: NA
Location:  40°N, 86.62°W
Report Text: KTYQ 250715Z AUTO 20003KT 7SM SCT055 BKN085 11/09 A2999 RMK AO2 T01130091
Loading
Personal Weather Stations






























Interactive Weather Map New forecast layout! Learn more

10-Day Weather Forecast

Advertisements
Track Severe Weather on mobile